Time;durP1;ratioP1;P1;durP2;ratioP2;P2;SDS_P1;SDS_P2;PMS_P1;PMS_P2;Temp;Humidity;BMP_temperature;BMP_pressure;BME280_temperature;BME280_humidity;BME280_pressure;Samples;Min_cycle;Max_cycle;Signal;HPM_P1;HPM_P2
2021/12/09 00:00:43;;;;;;;14.50;11.83;;;;;;;2.35;100.00;99163.06;5053423;28;20200;-69
2021/12/09 00:03:10;;;;;;;18.87;12.13;;;;;;;2.37;100.00;99170.63;5053252;28;20686;-69
2021/12/09 00:05:38;;;;;;;19.23;12.73;;;;;;;2.37;100.00;99173.16;5053392;28;20672;-69
2021/12/09 00:08:07;;;;;;;17.27;12.57;;;;;;;2.36;100.00;99179.09;5052982;28;20215;-69
2021/12/09 00:10:35;;;;;;;18.50;12.37;;;;;;;2.35;100.00;99182.44;5052995;28;20227;-69
2021/12/09 00:13:03;;;;;;;17.43;12.73;;;;;;;2.29;100.00;99172.34;5053019;28;20211;-69
2021/12/09 00:15:30;;;;;;;21.23;13.77;;;;;;;2.34;100.00;99190.88;5053108;28;20200;-71
2021/12/09 00:17:57;;;;;;;20.30;13.07;;;;;;;2.34;100.00;99189.19;5052987;28;20201;-69
2021/12/09 00:20:24;;;;;;;22.63;13.70;;;;;;;2.33;100.00;99179.06;5053020;28;20226;-69
2021/12/09 00:22:51;;;;;;;19.17;12.73;;;;;;;2.31;100.00;99180.75;5049212;28;20550;-69
2021/12/09 00:25:19;;;;;;;16.43;12.80;;;;;;;2.25;100.00;99180.78;5052423;28;20224;-69
2021/12/09 00:27:46;;;;;;;21.10;13.40;;;;;;;2.27;100.00;99184.97;5052858;28;20197;-69
2021/12/09 00:30:14;;;;;;;20.17;13.43;;;;;;;2.28;100.00;99185.81;5052536;28;20288;-69
2021/12/09 00:32:41;;;;;;;17.20;12.20;;;;;;;2.27;100.00;99189.19;5051625;28;20201;-69
2021/12/09 00:35:13;;;;;;;20.93;12.90;;;;;;;2.27;100.00;99189.19;5052243;28;20205;-69
2021/12/09 00:37:51;;;;;;;16.97;12.63;;;;;;;2.27;100.00;99189.19;5050722;28;20281;-69
2021/12/09 00:40:19;;;;;;;19.73;12.77;;;;;;;2.25;100.00;99203.53;5050037;28;20569;-69
2021/12/09 00:42:46;;;;;;;18.97;12.97;;;;;;;2.25;100.00;99206.06;5050494;28;20204;-69
2021/12/09 00:45:13;;;;;;;20.63;12.57;;;;;;;2.22;100.00;99201.00;5049474;28;20216;-69
2021/12/09 00:47:40;;;;;;;21.13;12.63;;;;;;;2.20;100.00;99205.22;5050294;28;20212;-69
2021/12/09 00:50:08;;;;;;;17.80;12.47;;;;;;;2.10;100.00;99197.63;5049303;28;20204;-70
2021/12/09 00:52:35;;;;;;;19.17;12.67;;;;;;;2.17;100.00;99207.72;5050149;28;20220;-69
2021/12/09 00:55:02;;;;;;;19.00;12.10;;;;;;;2.14;100.00;99203.53;5051661;28;20676;-69
2021/12/09 00:57:31;;;;;;;19.73;12.77;;;;;;;2.07;100.00;99205.19;5050182;28;20204;-69
2021/12/09 00:59:59;;;;;;;16.90;12.10;;;;;;;2.03;100.00;99206.06;5050448;28;20205;-70
2021/12/09 01:02:26;;;;;;;12.97;10.77;;;;;;;1.95;100.00;99206.88;5050380;28;20617;-69
2021/12/09 01:04:53;;;;;;;16.73;11.57;;;;;;;1.93;100.00;99214.47;5050469;28;20208;-69
2021/12/09 01:07:20;;;;;;;17.23;11.90;;;;;;;1.84;100.00;99206.84;5050239;28;20192;-69
2021/12/09 01:09:47;;;;;;;15.50;11.77;;;;;;;1.87;100.00;99206.88;5050231;28;20204;-70
2021/12/09 01:12:13;;;;;;;16.23;11.43;;;;;;;1.84;100.00;99201.81;5052073;28;20213;-70
2021/12/09 01:14:42;;;;;;;17.60;11.30;;;;;;;1.81;100.00;99206.84;5051674;28;20630;-69
2021/12/09 01:17:11;;;;;;;19.70;11.87;;;;;;;1.82;100.00;99211.06;5052059;28;20197;-69
2021/12/09 01:19:39;;;;;;;12.73;11.40;;;;;;;1.81;100.00;99214.44;5051530;28;20207;-69
2021/12/09 01:22:07;;;;;;;17.53;11.47;;;;;;;1.81;100.00;99204.31;5051898;28;20212;-69
2021/12/09 01:24:33;;;;;;;16.83;11.57;;;;;;;1.83;100.00;99201.81;5051212;28;20229;-69
2021/12/09 01:27:01;;;;;;;16.60;12.07;;;;;;;1.81;100.00;99199.28;5051588;28;20661;-70
2021/12/09 01:29:34;;;;;;;17.27;12.30;;;;;;;1.79;100.00;99195.06;5051844;28;20197;-70
2021/12/09 01:32:05;;;;;;;16.33;11.60;;;;;;;1.74;100.00;99202.66;5051712;28;20262;-70
2021/12/09 01:34:32;;;;;;;19.63;12.67;;;;;;;1.73;100.00;99195.91;5051518;28;20236;-70
2021/12/09 01:37:00;;;;;;;17.37;12.70;;;;;;;1.74;100.00;99191.69;5051707;28;20197;-69
2021/12/09 01:39:28;;;;;;;16.67;12.50;;;;;;;1.75;100.00;99190.84;5051487;28;20197;-69
2021/12/09 01:41:55;;;;;;;18.33;12.17;;;;;;;1.73;100.00;99180.75;5051519;28;20201;-69
2021/12/09 01:44:22;;;;;;;16.57;11.77;;;;;;;1.73;100.00;99183.28;5050643;28;20208;-69
2021/12/09 01:46:50;;;;;;;17.87;12.70;;;;;;;1.72;100.00;99186.63;5050224;28;20691;-69
2021/12/09 01:49:19;;;;;;;18.33;12.73;;;;;;;1.72;100.00;99188.31;5051308;28;20208;-71
2021/12/09 01:51:47;;;;;;;16.30;11.70;;;;;;;1.72;100.00;99174.00;5050739;28;20219;-70
2021/12/09 01:54:14;;;;;;;19.40;13.10;;;;;;;1.74;100.00;99182.44;5050392;28;20196;-70
2021/12/09 01:56:41;;;;;;;19.50;12.77;;;;;;;1.67;100.00;99180.75;5050921;28;20197;-70
2021/12/09 01:59:08;;;;;;;19.77;12.67;;;;;;;1.63;100.00;99168.94;5050041;28;20648;-70
2021/12/09 02:01:36;;;;;;;18.83;11.83;;;;;;;1.57;100.00;99161.34;5050862;28;20193;-70
2021/12/09 02:04:07;;;;;;;21.67;13.50;;;;;;;1.45;100.00;99148.69;5050935;28;20255;-70
2021/12/09 02:06:40;;;;;;;18.03;12.33;;;;;;;1.49;100.00;99155.41;5050885;28;20200;-70
2021/12/09 02:09:08;;;;;;;24.63;13.50;;;;;;;1.47;100.00;99159.63;5051071;28;20196;-70
2021/12/09 02:11:35;;;;;;;22.97;14.47;;;;;;;1.47;100.00;99163.00;5050896;28;20223;-70
2021/12/09 02:14:03;;;;;;;18.13;14.13;;;;;;;1.46;100.00;99152.91;5050564;28;20200;-70
2021/12/09 02:16:30;;;;;;;23.10;14.87;;;;;;;1.47;100.00;99141.97;5051106;28;20208;-70
2021/12/09 02:18:57;;;;;;;21.67;14.40;;;;;;;1.49;100.00;99131.00;5049503;28;20558;-70
2021/12/09 02:21:28;;;;;;;22.53;14.73;;;;;;;1.49;100.00;99135.22;5050880;28;20212;-70
2021/12/09 02:23:59;;;;;;;25.80;13.40;;;;;;;1.47;100.00;99130.19;5050430;28;20224;-70
2021/12/09 02:26:29;;;;;;;21.80;15.23;;;;;;;1.51;100.00;99136.09;5050838;28;20208;-72
2021/12/09 02:29:01;;;;;;;23.27;14.90;;;;;;;1.37;100.00;99123.41;5050532;28;20205;-73
2021/12/09 02:31:29;;;;;;;19.43;14.47;;;;;;;1.47;100.00;99157.13;5049240;28;20216;-70
2021/12/09 02:33:58;;;;;;;28.73;15.97;;;;;;;1.44;100.00;99157.09;5050474;28;20200;-70
2021/12/09 02:36:26;;;;;;;19.53;14.37;;;;;;;1.46;100.00;99161.31;5051387;28;20668;-70
2021/12/09 02:38:53;;;;;;;21.13;14.93;;;;;;;1.46;100.00;99165.53;5049721;28;20205;-70
2021/12/09 02:41:23;;;;;;;20.83;14.60;;;;;;;1.44;100.00;99168.06;5049207;28;20200;-70
2021/12/09 02:43:54;;;;;;;20.00;13.60;;;;;;;1.44;100.00;99167.22;5048486;28;20254;-70
2021/12/09 02:46:20;;;;;;;18.57;13.10;;;;;;;1.45;100.00;99173.97;5049009;28;20295;-70
2021/12/09 02:48:47;;;;;;;13.97;11.40;;;;;;;1.43;100.00;99160.47;5050154;28;20208;-70
2021/12/09 02:51:15;;;;;;;22.00;14.03;;;;;;;1.31;100.00;99137.72;5050174;28;20254;-69
2021/12/09 02:53:43;;;;;;;18.30;12.90;;;;;;;1.34;100.00;99150.34;5050184;28;20219;-70
2021/12/09 02:56:12;;;;;;;18.63;12.93;;;;;;;1.31;100.00;99150.34;5048738;28;20204;-69
2021/12/09 02:58:39;;;;;;;17.53;13.03;;;;;;;1.33;100.00;99163.81;5048365;28;20193;-70
2021/12/09 03:01:15;;;;;;;21.83;13.73;;;;;;;1.26;100.00;99167.16;5048273;28;20200;-70
2021/12/09 03:03:49;;;;;;;17.83;12.10;;;;;;;1.25;100.00;99175.56;5049724;28;20553;-70
2021/12/09 03:06:16;;;;;;;13.27;11.63;;;;;;;1.26;100.00;99172.22;5053116;28;20208;-69
2021/12/09 03:08:44;;;;;;;14.97;11.63;;;;;;;1.16;100.00;99165.44;5053533;28;20238;-70
2021/12/09 03:11:14;;;;;;;15.77;11.80;;;;;;;1.13;100.00;99166.28;5053303;28;20204;-70
2021/12/09 03:13:42;;;;;;;23.00;16.83;;;;;;;1.16;100.00;99190.69;5054404;28;20196;-70
2021/12/09 03:16:10;;;;;;;12.53;11.27;;;;;;;1.11;100.00;99192.34;5054176;28;20622;-69
2021/12/09 03:18:41;;;;;;;17.87;11.87;;;;;;;1.04;100.00;99179.69;5054018;28;20689;-70
2021/12/09 03:21:16;;;;;;;13.63;9.70;;;;;;;1.11;100.00;99189.81;5052468;28;20720;-70
2021/12/09 03:23:44;;;;;;;12.67;10.53;;;;;;;1.02;100.00;99178.00;5053906;28;20700;-70
2021/12/09 03:26:11;;;;;;;15.00;10.00;;;;;;;1.08;100.00;99192.31;5053928;28;20200;-70
2021/12/09 03:28:38;;;;;;;15.03;10.13;;;;;;;1.09;100.00;99186.44;5053881;28;20201;-69
2021/12/09 03:31:05;;;;;;;13.87;9.77;;;;;;;1.08;100.00;99177.19;5054031;28;20558;-70
2021/12/09 03:33:32;;;;;;;13.53;11.00;;;;;;;1.04;100.00;99177.19;5053822;28;20221;-70
2021/12/09 03:36:00;;;;;;;14.87;10.17;;;;;;;1.05;100.00;99180.53;5054040;28;20203;-70
2021/12/09 03:38:28;;;;;;;13.50;10.87;;;;;;;1.08;100.00;99194.84;5052633;28;20266;-70
2021/12/09 03:40:56;;;;;;;13.10;10.67;;;;;;;1.02;100.00;99188.97;5053513;28;20243;-70
2021/12/09 03:43:24;;;;;;;15.47;12.10;;;;;;;1.01;100.00;99197.34;5053198;28;20557;-69
2021/12/09 03:45:55;;;;;;;13.63;11.17;;;;;;;0.98;100.00;99197.34;5053724;28;20204;-70
2021/12/09 03:48:22;;;;;;;16.77;10.63;;;;;;;0.98;100.00;99206.59;5053452;28;20203;-70
2021/12/09 03:50:49;;;;;;;17.27;11.40;;;;;;;0.93;100.00;99201.53;5053539;28;20228;-70
2021/12/09 03:53:16;;;;;;;17.40;11.83;;;;;;;0.95;100.00;99209.94;5053553;28;20213;-70
2021/12/09 03:55:43;;;;;;;16.10;11.63;;;;;;;0.95;100.00;99202.38;5053458;28;20196;-70
2021/12/09 03:58:11;;;;;;;18.00;11.30;;;;;;;0.94;100.00;99205.72;5053567;28;20212;-70
2021/12/09 04:00:38;;;;;;;18.47;11.83;;;;;;;0.93;100.00;99204.06;5051933;28;20580;-70
2021/12/09 04:03:07;;;;;;;15.87;12.30;;;;;;;0.82;100.00;99184.63;5053537;28;20197;-70
2021/12/09 04:05:33;;;;;;;21.70;13.23;;;;;;;0.90;100.00;99204.03;5053034;28;20711;-69
2021/12/09 04:08:00;;;;;;;19.47;12.27;;;;;;;0.91;100.00;99190.56;5053313;28;20201;-70
2021/12/09 04:10:27;;;;;;;16.80;11.63;;;;;;;0.90;100.00;99204.03;5053147;28;20216;-69
2021/12/09 04:12:55;;;;;;;15.13;11.77;;;;;;;0.89;100.00;99202.34;5053234;28;20224;-70
2021/12/09 04:15:23;;;;;;;19.13;14.00;;;;;;;0.83;100.00;99184.66;5052285;28;20220;-70
2021/12/09 04:17:50;;;;;;;13.87;11.97;;;;;;;0.88;100.00;99203.19;5052534;28;20212;-70
2021/12/09 04:20:17;;;;;;;13.60;9.97;;;;;;;0.89;100.00;99202.34;5052958;28;20204;-70
2021/12/09 04:22:49;;;;;;;19.40;12.57;;;;;;;0.88;100.00;99200.66;5052682;28;20216;-70
2021/12/09 04:25:17;;;;;;;14.87;11.17;;;;;;;0.84;100.00;99198.13;5052879;28;20228;-70
2021/12/09 04:27:44;;;;;;;16.73;11.50;;;;;;;0.72;100.00;99203.06;5052767;28;20705;-70
2021/12/09 04:30:13;;;;;;;20.07;11.80;;;;;;;0.80;100.00;99207.34;5052938;28;20606;-70
2021/12/09 04:32:41;;;;;;;17.17;11.13;;;;;;;0.78;100.00;99203.97;5052490;28;20221;-70
2021/12/09 04:35:10;;;;;;;13.60;11.47;;;;;;;0.80;100.00;99211.53;5052727;28;20673;-70
2021/12/09 04:37:38;;;;;;;17.13;11.67;;;;;;;0.72;100.00;99191.31;5051508;28;20212;-70
2021/12/09 04:40:08;;;;;;;14.50;11.47;;;;;;;0.72;100.00;99193.00;5051833;28;20228;-70
2021/12/09 04:42:35;;;;;;;17.77;11.63;;;;;;;0.81;100.00;99205.69;5051150;28;20200;-70
2021/12/09 04:45:02;;;;;;;16.57;11.77;;;;;;;0.71;100.00;99187.09;5052010;28;20624;-70
2021/12/09 04:47:29;;;;;;;19.40;11.87;;;;;;;0.81;100.00;99220.81;5052367;28;20192;-70
2021/12/09 04:49:58;;;;;;;17.97;11.53;;;;;;;0.79;100.00;99230.03;5051955;28;20205;-70
2021/12/09 04:52:25;;;;;;;15.47;11.77;;;;;;;0.73;100.00;99224.97;5052427;28;20212;-70
2021/12/09 04:54:52;;;;;;;20.23;11.83;;;;;;;0.74;100.00;99224.97;5052132;28;20288;-70
2021/12/09 04:57:19;;;;;;;18.27;11.50;;;;;;;0.74;100.00;99227.50;5052303;28;20204;-70
2021/12/09 04:59:47;;;;;;;18.80;13.03;;;;;;;0.72;100.00;99231.66;5052473;28;20208;-70
2021/12/09 05:02:23;;;;;;;21.37;12.93;;;;;;;0.67;100.00;99240.91;5051914;28;20197;-70
2021/12/09 05:04:50;;;;;;;16.70;11.57;;;;;;;0.67;100.00;99235.88;5051085;28;20204;-69
2021/12/09 05:07:19;;;;;;;19.57;11.77;;;;;;;0.70;100.00;99235.03;5050379;28;20197;-70
2021/12/09 05:09:50;;;;;;;26.77;10.97;;;;;;;0.59;100.00;99209.72;5050286;28;20215;-69
2021/12/09 05:12:18;;;;;;;19.20;10.73;;;;;;;0.60;100.00;99211.44;5050019;28;20311;-70
2021/12/09 05:14:45;;;;;;;13.83;10.83;;;;;;;0.63;100.00;99224.06;5050323;28;20208;-70
2021/12/09 05:17:13;;;;;;;10.33;8.57;;;;;;;0.63;100.00;99226.56;5049834;28;20193;-70
2021/12/09 05:19:40;;;;;;;14.80;10.00;;;;;;;0.56;100.00;99222.31;5049516;28;20205;-70
2021/12/09 05:22:08;;;;;;;16.73;11.57;;;;;;;0.60;100.00;99228.22;5050824;28;20196;-70
2021/12/09 05:24:37;;;;;;;10.20;9.20;;;;;;;0.60;100.00;99244.22;5051638;28;20231;-70
2021/12/09 05:27:05;;;;;;;11.23;9.00;;;;;;;0.57;100.00;99248.38;5051579;28;20232;-70
2021/12/09 05:29:38;;;;;;;11.30;9.03;;;;;;;0.54;100.00;99254.25;5051899;28;20577;-69
2021/12/09 05:32:08;;;;;;;11.57;9.67;;;;;;;0.38;100.00;99232.28;5050337;28;20270;-69
2021/12/09 05:34:37;;;;;;;11.43;8.57;;;;;;;0.53;100.00;99257.59;5051556;28;20686;-70
2021/12/09 05:37:05;;;;;;;9.63;8.73;;;;;;;0.53;100.00;99260.13;5049899;28;20704;-69
2021/12/09 05:39:32;;;;;;;9.53;8.57;;;;;;;0.53;100.00;99250.03;5051622;28;20607;-70
2021/12/09 05:42:00;;;;;;;9.87;8.30;;;;;;;0.56;100.00;99262.66;5051617;28;20572;-70
2021/12/09 05:44:27;;;;;;;13.13;9.00;;;;;;;0.53;100.00;99267.69;5051092;28;20204;-69
2021/12/09 05:46:54;;;;;;;15.77;11.17;;;;;;;0.48;100.00;99264.31;5051518;28;20592;-70
2021/12/09 05:49:21;;;;;;;14.33;10.77;;;;;;;0.42;100.00;99259.22;5050934;28;20212;-69
2021/12/09 05:51:48;;;;;;;15.50;11.30;;;;;;;0.36;100.00;99251.56;5051287;28;20687;-70
2021/12/09 05:54:15;;;;;;;16.10;10.00;;;;;;;0.45;100.00;99276.91;5051147;28;20216;-70
2021/12/09 05:56:42;;;;;;;13.70;10.47;;;;;;;0.46;100.00;99281.06;5051349;28;20196;-69
2021/12/09 05:59:11;;;;;;;14.00;10.63;;;;;;;0.46;100.00;99283.59;5050781;28;20197;-70
2021/12/09 06:01:39;;;;;;;11.77;10.13;;;;;;;0.47;100.00;99281.09;5048897;28;20208;-69
2021/12/09 06:04:07;;;;;;;11.53;10.33;;;;;;;0.49;100.00;99271.88;5043880;28;20201;-69
2021/12/09 06:06:36;;;;;;;16.93;11.83;;;;;;;0.48;100.00;99276.91;5039075;28;20201;-69
2021/12/09 06:09:04;;;;;;;31.17;14.23;;;;;;;0.48;100.00;99289.53;5040793;28;20574;-70
2021/12/09 06:11:31;;;;;;;17.77;11.73;;;;;;;0.50;100.00;99287.84;5046565;28;20205;-69
2021/12/09 06:13:59;;;;;;;17.17;10.93;;;;;;;0.55;100.00;99297.97;5049753;28;20225;-70
2021/12/09 06:16:27;;;;;;;13.43;10.07;;;;;;;0.54;100.00;99297.13;5049534;28;20196;-69
2021/12/09 06:18:55;;;;;;;11.97;8.53;;;;;;;0.48;100.00;99290.38;5050691;28;20573;-69
2021/12/09 06:21:23;;;;;;;13.13;10.10;;;;;;;0.59;100.00;99313.13;5050546;28;20235;-70
2021/12/09 06:23:51;;;;;;;10.87;9.73;;;;;;;0.52;100.00;99311.38;5050463;28;20231;-69
2021/12/09 06:26:17;;;;;;;12.90;9.90;;;;;;;0.52;100.00;99316.44;5050412;28;20661;-69
2021/12/09 06:28:44;;;;;;;41.23;19.50;;;;;;;0.55;100.00;99315.63;5050010;28;20212;-70
2021/12/09 06:31:11;;;;;;;24.17;14.83;;;;;;;0.45;100.00;99312.19;5049490;28;20197;-70
2021/12/09 06:33:40;;;;;;;24.97;14.23;;;;;;;0.40;100.00;99301.19;5049703;28;20220;-70
2021/12/09 06:36:07;;;;;;;19.10;13.00;;;;;;;0.32;100.00;99298.63;5049363;28;20204;-70
2021/12/09 06:38:35;;;;;;;17.53;12.23;;;;;;;0.38;100.00;99307.94;5049693;28;20207;-70
2021/12/09 06:41:02;;;;;;;15.13;12.47;;;;;;;0.41;100.00;99307.94;5050494;28;20197;-70
2021/12/09 06:43:29;;;;;;;16.10;12.10;;;;;;;0.33;100.00;99294.41;5050491;28;20193;-69
2021/12/09 06:45:56;;;;;;;16.23;12.57;;;;;;;0.42;100.00;99300.38;5049727;28;20688;-69
2021/12/09 06:48:24;;;;;;;19.60;13.13;;;;;;;0.35;100.00;99277.66;5050589;28;20197;-69
2021/12/09 06:50:52;;;;;;;19.23;12.93;;;;;;;0.50;100.00;99297.94;5050396;28;20573;-70
2021/12/09 06:53:19;;;;;;;18.40;11.80;;;;;;;0.50;100.00;99302.97;5050259;28;20217;-70
2021/12/09 06:55:46;;;;;;;24.00;14.17;;;;;;;0.48;100.00;99304.66;5050394;28;20205;-69
2021/12/09 06:58:13;;;;;;;27.47;15.47;;;;;;;0.52;100.00;99294.59;5050256;28;20672;-69
2021/12/09 07:00:45;;;;;;;24.00;14.33;;;;;;;0.58;100.00;99300.53;5050273;28;20196;-69
2021/12/09 07:03:12;;;;;;;21.47;13.10;;;;;;;0.60;100.00;99304.75;5050405;28;20201;-69
2021/12/09 07:05:39;;;;;;;24.73;15.00;;;;;;;0.60;100.00;99293.81;5050362;28;20201;-69
2021/12/09 07:08:08;;;;;;;28.70;14.87;;;;;;;0.65;100.00;99293.00;5049817;28;20197;-70
2021/12/09 07:10:35;;;;;;;22.83;13.73;;;;;;;0.68;100.00;99298.06;5050272;28;20222;-69
2021/12/09 07:13:03;;;;;;;20.63;13.07;;;;;;;0.76;100.00;99301.50;5049614;28;20217;-70
2021/12/09 07:15:30;;;;;;;20.17;14.37;;;;;;;0.78;100.00;99284.69;5043829;28;20203;-70
2021/12/09 07:17:57;;;;;;;26.03;15.13;;;;;;;0.82;100.00;99278.84;5046046;28;20802;-70
2021/12/09 07:20:24;;;;;;;31.33;18.03;;;;;;;0.83;100.00;99287.25;5047706;28;20201;-69
2021/12/09 07:22:52;;;;;;;30.70;17.23;;;;;;;0.89;100.00;99297.38;5046872;28;20659;-69
2021/12/09 07:25:22;;;;;;;34.60;18.53;;;;;;;0.92;100.00;99290.69;5043931;28;20235;-63
2021/12/09 07:27:49;;;;;;;19.63;13.30;;;;;;;0.93;100.00;99296.56;5047195;28;20211;-69
2021/12/09 07:30:18;;;;;;;24.87;15.00;;;;;;;1.11;100.00;99295.84;5045806;28;20200;-62
2021/12/09 07:32:45;;;;;;;24.40;14.77;;;;;;;1.18;100.00;99290.00;5045936;28;20208;-63
2021/12/09 07:35:15;;;;;;;20.43;14.90;;;;;;;1.20;100.00;99293.34;5045118;28;20217;-61
2021/12/09 07:37:42;;;;;;;24.70;15.27;;;;;;;1.28;100.00;99301.81;5042978;28;20201;-72
2021/12/09 07:40:12;;;;;;;27.63;16.20;;;;;;;1.29;100.00;99303.53;5046672;28;20211;-68
2021/12/09 07:42:40;;;;;;;19.80;14.57;;;;;;;1.26;100.00;99293.41;5044547;28;21606;-68
2021/12/09 07:45:10;;;;;;;22.80;15.50;;;;;;;1.33;100.00;99305.22;5044789;28;20618;-68
2021/12/09 07:47:37;;;;;;;23.27;15.50;;;;;;;1.30;100.00;99290.03;5042915;28;20212;-67
2021/12/09 07:50:05;;;;;;;26.93;15.50;;;;;;;1.43;100.00;99291.78;5045777;28;20658;-67
2021/12/09 07:52:32;;;;;;;26.53;15.50;;;;;;;1.55;100.00;99287.63;5048529;28;20200;-67
2021/12/09 07:54:59;;;;;;;24.10;16.00;;;;;;;1.46;100.00;99256.44;5050698;28;20220;-67
2021/12/09 07:57:26;;;;;;;33.27;17.17;;;;;;;1.65;100.00;99283.47;5045729;28;20217;-69
2021/12/09 07:59:54;;;;;;;39.30;18.23;;;;;;;1.69;100.00;99285.16;5046086;28;20214;-70
2021/12/09 08:02:21;;;;;;;28.20;16.33;;;;;;;1.77;100.00;99270.03;5048769;28;20204;-71
2021/12/09 08:04:48;;;;;;;29.17;17.33;;;;;;;1.97;100.00;99281.06;5048720;28;20601;-68
2021/12/09 08:07:15;;;;;;;29.57;18.93;;;;;;;2.08;100.00;99286.94;5049686;28;20205;-68
2021/12/09 08:09:41;;;;;;;27.70;17.50;;;;;;;2.16;100.00;99281.91;5049940;28;20703;-68
2021/12/09 08:12:09;;;;;;;31.57;19.03;;;;;;;2.22;100.00;99292.03;5049731;28;20209;-67
2021/12/09 08:14:35;;;;;;;31.93;18.47;;;;;;;2.32;100.00;99294.59;5048180;28;20217;-68
2021/12/09 08:17:23;;;;;;;32.03;18.37;;;;;;;2.41;100.00;99281.09;5049104;28;20209;-68
2021/12/09 08:19:50;;;;;;;27.77;17.80;;;;;;;2.56;100.00;99281.09;5049783;28;20213;-68
2021/12/09 08:22:17;;;;;;;32.67;16.83;;;;;;;2.63;100.00;99280.25;5049298;28;20584;-68
2021/12/09 08:24:43;;;;;;;29.20;17.57;;;;;;;2.76;100.00;99289.53;5049971;28;20227;-68
2021/12/09 08:27:10;;;;;;;24.63;15.97;;;;;;;2.80;100.00;99282.78;5045833;28;20216;-68
2021/12/09 08:29:37;;;;;;;28.27;17.40;;;;;;;2.93;100.00;99295.41;5046897;28;20211;-69
2021/12/09 08:32:06;;;;;;;27.97;17.17;;;;;;;2.97;100.00;99292.00;5046453;28;20204;-69
2021/12/09 08:34:33;;;;;;;30.60;16.93;;;;;;;3.05;100.00;99285.25;5047813;28;20707;-68
2021/12/09 08:37:00;;;;;;;24.30;17.43;;;;;;;3.14;100.00;99277.63;5047997;28;20207;-68
2021/12/09 08:39:27;;;;;;;29.43;18.80;;;;;;;3.21;100.00;99267.50;5047821;28;20201;-69
2021/12/09 08:41:54;;;;;;;24.73;17.97;;;;;;;3.24;100.00;99259.88;5047164;28;20233;-69
2021/12/09 08:44:21;;;;;;;30.90;17.53;;;;;;;3.34;100.00;99276.75;5050338;28;20196;-68
2021/12/09 08:46:48;;;;;;;29.80;16.80;;;;;;;3.46;100.00;99284.28;5046880;28;20205;-68
2021/12/09 08:49:16;;;;;;;31.83;18.03;;;;;;;3.52;100.00;99281.75;5047848;28;20220;-66
2021/12/09 08:51:43;;;;;;;31.03;17.50;;;;;;;3.51;100.00;99264.84;5047965;28;20209;-67
2021/12/09 08:54:10;;;;;;;26.77;16.03;;;;;;;3.69;100.00;99267.31;5048618;28;20247;-67
2021/12/09 08:56:38;;;;;;;24.13;15.67;;;;;;;3.68;100.00;99256.31;5046402;28;20202;-68
2021/12/09 08:59:06;;;;;;;29.03;16.80;;;;;;;3.76;100.00;99250.38;5048253;28;20201;-67
2021/12/09 09:01:35;;;;;;;23.23;14.20;;;;;;;3.83;100.00;99252.03;5048782;28;20725;-69
2021/12/09 09:04:02;;;;;;;19.07;14.07;;;;;;;3.78;100.00;99264.72;5050184;28;20207;-69
2021/12/09 09:06:32;;;;;;;23.43;14.37;;;;;;;3.80;100.00;99252.91;5048633;28;20650;-70
2021/12/09 09:08:59;;;;;;;24.97;16.47;;;;;;;3.78;100.00;99249.50;5041294;28;20212;-70
2021/12/09 09:11:26;;;;;;;30.17;20.53;;;;;;;3.77;100.00;99237.69;5038804;28;20200;-68
2021/12/09 09:13:53;;;;;;;21.20;14.87;;;;;;;3.84;100.00;99234.28;5040175;28;20225;-67
2021/12/09 09:16:20;;;;;;;18.13;13.97;;;;;;;3.90;100.00;99228.31;5044925;28;20227;-69
2021/12/09 09:18:47;;;;;;;24.17;14.67;;;;;;;3.92;100.00;99227.47;5042320;28;20231;-69
2021/12/09 09:21:14;;;;;;;19.57;14.33;;;;;;;3.95;100.00;99222.38;5045716;28;20213;-70
2021/12/09 09:23:42;;;;;;;19.57;14.23;;;;;;;4.05;100.00;99221.44;5045661;28;20232;-68
2021/12/09 09:26:09;;;;;;;20.17;14.10;;;;;;;4.09;100.00;99212.97;5047314;28;20205;-70
2021/12/09 09:28:36;;;;;;;24.17;13.43;;;;;;;4.14;100.00;99213.78;5045277;28;20212;-69
2021/12/09 09:31:04;;;;;;;20.97;14.57;;;;;;;4.26;100.00;99227.22;5046596;28;20209;-70
2021/12/09 09:33:32;;;;;;;20.33;13.57;;;;;;;4.34;100.00;99222.94;5048012;28;20225;-70
2021/12/09 09:36:00;;;;;;;14.40;11.83;;;;;;;4.44;100.00;99216.91;5047932;28;20224;-69
2021/12/09 09:38:27;;;;;;;15.37;12.60;;;;;;;4.48;100.00;99208.44;5044442;28;20208;-73
2021/12/09 09:41:05;;;;;;;20.73;13.43;;;;;;;4.61;100.00;99210.84;5043542;28;20608;-71
2021/12/09 09:43:44;;;;;;;19.33;13.53;;;;;;;4.73;100.00;99207.34;5041787;28;20561;-72
2021/12/09 09:46:13;;;;;;;15.23;11.63;;;;;;;4.78;100.00;99208.16;5036960;28;20200;-71
2021/12/09 09:48:41;;;;;;;19.17;13.43;;;;;;;4.80;100.00;99201.34;5045878;28;20211;-71
2021/12/09 09:51:10;;;;;;;16.17;12.53;;;;;;;4.89;100.00;99191.09;5046825;28;20765;-72
2021/12/09 09:53:39;;;;;;;17.47;12.83;;;;;;;4.89;100.00;99196.16;5046887;28;20823;-73
2021/12/09 09:56:13;;;;;;;22.47;13.77;;;;;;;5.00;100.00;99203.69;5050215;28;20201;-72
2021/12/09 09:58:41;;;;;;;16.17;12.20;;;;;;;5.04;100.00;99178.22;5042918;28;20204;-71
2021/12/09 10:01:08;;;;;;;22.13;14.73;;;;;;;5.15;100.00;99181.47;5046649;28;20209;-72
2021/12/09 10:03:41;;;;;;;22.13;14.03;;;;;;;5.23;100.00;99187.28;5046363;28;20204;-72
2021/12/09 10:06:09;;;;;;;21.23;13.30;;;;;;;5.21;100.00;99183.94;5046849;28;20291;-71
2021/12/09 10:08:36;;;;;;;14.70;11.83;;;;;;;5.19;100.00;99188.22;5047407;28;20221;-70
2021/12/09 10:11:04;;;;;;;19.20;13.07;;;;;;;5.21;100.00;99191.56;5047011;28;21046;-71
2021/12/09 10:13:34;;;;;;;21.07;12.97;;;;;;;5.35;100.00;99185.47;5046123;28;20243;-71
2021/12/09 10:16:05;;;;;;;16.73;13.10;;;;;;;5.40;100.00;99173.53;5046582;28;20203;-70
2021/12/09 10:18:34;;;;;;;20.27;15.23;;;;;;;5.47;100.00;99170.91;5046579;28;20209;-71
2021/12/09 10:21:02;;;;;;;15.63;12.20;;;;;;;5.54;100.00;99179.28;5045466;28;20204;-71
2021/12/09 10:23:33;;;;;;;19.07;12.77;;;;;;;5.57;100.00;99161.44;5043712;28;20229;-72
2021/12/09 10:26:27;;;;;;;14.03;12.50;;;;;;;5.66;100.00;99158.78;5045490;28;20201;-74
2021/12/09 10:29:06;;;;;;;18.77;13.37;;;;;;;5.76;100.00;99152.69;5041803;28;20212;-74
2021/12/09 10:31:36;;;;;;;16.83;12.77;;;;;;;5.80;100.00;99156.88;5045523;28;20558;-73
2021/12/09 10:34:20;;;;;;;27.53;16.77;;;;;;;5.87;100.00;99150.88;5048534;28;20710;-73
2021/12/09 10:37:06;;;;;;;32.17;16.53;;;;;;;5.97;100.00;99144.78;5049959;28;20572;-74
2021/12/09 10:39:40;;;;;;;22.27;14.60;;;;;;;6.02;100.00;99140.44;5046932;28;20601;-74
2021/12/09 10:42:10;;;;;;;17.27;13.57;;;;;;;5.98;100.00;99143.91;5049730;28;20200;-74
2021/12/09 10:44:56;;;;;;;23.23;15.30;;;;;;;6.00;100.00;99142.19;5050001;28;20192;-74
2021/12/09 10:47:50;;;;;;;17.90;12.90;;;;;;;5.98;100.00;99131.19;5048431;28;20204;-73
2021/12/09 10:50:29;;;;;;;20.97;14.40;;;;;;;6.06;100.00;99128.53;5044523;28;20204;-73
2021/12/09 10:53:03;;;;;;;38.40;17.93;;;;;;;6.08;100.00;99122.53;5048371;28;20289;-75
2021/12/09 10:55:34;;;;;;;42.17;23.73;;;;;;;6.08;100.00;99121.69;5047831;28;20228;-71
2021/12/09 10:58:08;;;;;;;32.43;18.67;;;;;;;6.11;100.00;99127.56;5047383;28;20204;-71
2021/12/09 11:00:41;;;;;;;20.90;14.00;;;;;;;6.19;100.00;99118.13;5045121;28;20209;-73
2021/12/09 11:03:11;;;;;;;23.47;15.60;;;;;;;6.18;100.00;99116.44;5045869;28;20212;-72
2021/12/09 11:05:42;;;;;;;29.90;14.80;;;;;;;6.25;100.00;99117.16;5039708;28;20224;-73
2021/12/09 11:08:21;;;;;;;19.07;14.83;;;;;;;6.37;100.00;99121.19;5042633;28;20688;-72
2021/12/09 11:10:49;;;;;;;18.57;13.30;;;;;;;6.38;100.00;99108.44;5041901;28;20220;-72
2021/12/09 11:13:20;;;;;;;18.90;14.67;;;;;;;6.33;100.00;99074.59;5043956;28;20208;-71
2021/12/09 11:15:54;;;;;;;21.20;15.53;;;;;;;6.57;100.00;99093.66;5045004;28;20228;-73
2021/12/09 11:18:36;;;;;;;29.83;17.00;;;;;;;6.73;100.00;99093.34;5042951;28;20220;-71
2021/12/09 11:21:23;;;;;;;23.03;15.93;;;;;;;6.81;100.00;99091.50;5043862;28;20683;-71
2021/12/09 11:23:57;;;;;;;21.53;14.37;;;;;;;6.78;100.00;99083.06;5041722;28;20608;-71